createdAt,value
2017-02-09T00:00:03.183Z,1028.07
2017-02-09T00:05:06.515Z,1028.02
2017-02-09T00:10:03.213Z,1028.05
2017-02-09T00:15:03.186Z,1028.1
2017-02-09T00:20:03.011Z,1028.03
2017-02-09T00:25:03.469Z,1028.12
2017-02-09T00:45:02.833Z,1028.16
2017-02-09T00:50:03.628Z,1028.25
2017-02-09T00:55:03.421Z,1028.29
2017-02-09T01:00:03.281Z,1028.28
2017-02-09T01:06:06.239Z,1028.32
2017-02-09T01:10:02.916Z,1028.34
2017-02-09T01:25:03.308Z,1028.37
2017-02-09T01:30:04.288Z,1028.38
2017-02-09T01:35:03.084Z,1028.37
2017-02-09T01:45:03.565Z,1028.3
2017-02-09T01:50:04.237Z,1028.32
2017-02-09T01:55:03.968Z,1028.34
2017-02-09T02:00:03.553Z,1028.34
2017-02-09T02:15:02.945Z,1028.34
2017-02-09T02:25:04.570Z,1028.26
2017-02-09T02:30:03.387Z,1028.33
2017-02-09T02:35:03.184Z,1028.35
2017-02-09T02:40:09.629Z,1028.4
2017-02-09T02:45:03.390Z,1028.41
2017-02-09T02:50:02.827Z,1028.33
2017-02-09T03:15:02.925Z,1028.2
2017-02-09T03:20:03.899Z,1028.19
2017-02-09T03:25:03.366Z,1028.17
2017-02-09T03:40:02.741Z,1028.27
2017-02-09T03:50:04.638Z,1028.34
2017-02-09T06:35:03.593Z,1028.36
2017-02-09T06:40:03.200Z,1028.43
2017-02-09T06:45:02.800Z,1028.43
2017-02-09T06:50:03.546Z,1028.44
2017-02-09T06:55:03.002Z,1028.54
2017-02-09T07:00:03.443Z,1028.52
2017-02-09T07:05:03.130Z,1028.61
2017-02-09T07:10:02.769Z,1028.61
2017-02-09T07:15:03.323Z,1028.65
2017-02-09T07:20:02.895Z,1028.7
2017-02-09T07:25:03.208Z,1028.66
2017-02-09T07:30:02.721Z,1028.61
2017-02-09T07:35:03.031Z,1028.67
2017-02-09T07:40:02.691Z,1028.66
2017-02-09T07:45:03.257Z,1028.67
2017-02-09T07:50:02.667Z,1028.66
2017-02-09T07:55:03.472Z,1028.66
2017-02-09T08:00:03.228Z,1028.7
2017-02-09T08:05:02.576Z,1028.73
2017-02-09T08:10:02.957Z,1028.77
2017-02-09T08:15:02.781Z,1028.77
2017-02-09T08:20:03.271Z,1028.79
2017-02-09T08:25:02.644Z,1028.77
2017-02-09T08:30:03.181Z,1028.81
2017-02-09T08:35:02.648Z,1028.78
2017-02-09T08:40:03.155Z,1028.76
2017-02-09T08:45:02.815Z,1028.73
2017-02-09T08:50:03.262Z,1028.68
2017-02-09T08:55:02.903Z,1028.61
2017-02-09T09:00:03.235Z,1028.65
2017-02-09T09:05:02.903Z,1028.6
2017-02-09T09:10:03.534Z,1028.55
2017-02-09T09:15:03.098Z,1028.51
2017-02-09T09:20:03.474Z,1028.54
2017-02-09T09:25:02.822Z,1028.54
2017-02-09T09:30:03.231Z,1028.53
2017-02-09T09:35:02.650Z,1028.54
2017-02-09T09:40:03.022Z,1028.52
2017-02-09T09:45:03.622Z,1028.45
2017-02-09T09:50:03.149Z,1028.49
2017-02-09T09:55:02.750Z,1028.55
2017-02-09T10:00:03.316Z,1028.51
2017-02-09T10:05:03.143Z,1028.48
2017-02-09T10:10:02.815Z,1028.49
2017-02-09T10:15:03.341Z,1028.54
2017-02-09T10:20:02.959Z,1028.55
2017-02-09T10:25:03.413Z,1028.52
2017-02-09T10:30:02.869Z,1028.6
2017-02-09T10:35:03.273Z,1028.56
2017-02-09T10:40:02.712Z,1028.59
2017-02-09T10:45:03.227Z,1028.53
2017-02-09T10:50:03.524Z,1028.5
2017-02-09T10:55:02.993Z,1028.52
2017-02-09T11:00:03.428Z,1028.52
2017-02-09T11:05:03.039Z,1028.5
2017-02-09T11:10:02.771Z,1028.49
2017-02-09T11:15:03.563Z,1028.41
2017-02-09T11:20:03.625Z,1028.35
2017-02-09T11:25:03.348Z,1028.31
2017-02-09T11:30:03.119Z,1028.33
2017-02-09T11:35:02.909Z,1028.34
2017-02-09T11:40:03.063Z,1028.33
2017-02-09T11:45:03.128Z,1028.18
2017-02-09T11:50:02.636Z,1028.13
2017-02-09T11:55:03.283Z,1028.16
2017-02-09T12:00:03.179Z,1028.09
2017-02-09T12:05:02.749Z,1028.06
2017-02-09T12:10:02.640Z,1028.01
2017-02-09T12:15:03.238Z,1027.92
2017-02-09T12:20:02.821Z,1027.94
2017-02-09T12:25:02.683Z,1027.81
2017-02-09T12:30:03.164Z,1027.69
2017-02-09T12:35:02.741Z,1027.65
2017-02-09T12:40:03.468Z,1027.7
2017-02-09T12:45:03.021Z,1027.59
2017-02-09T12:50:02.658Z,1027.44
2017-02-09T12:55:03.080Z,1027.49
2017-02-09T13:00:02.681Z,1027.5
2017-02-09T13:05:03.062Z,1027.46
2017-02-09T13:10:03.544Z,1027.34
2017-02-09T13:15:03.155Z,1027.37
2017-02-09T13:20:02.920Z,1027.38
2017-02-09T13:25:03.378Z,1027.32
2017-02-09T13:30:02.904Z,1027.27
2017-02-09T13:35:02.815Z,1027.13
2017-02-09T13:40:03.428Z,1027.13
2017-02-09T13:45:03.071Z,1027.1
2017-02-09T13:50:03.520Z,1027.15
2017-02-09T13:55:02.972Z,1027.14
2017-02-09T14:00:02.678Z,1027.16
2017-02-09T14:05:03.458Z,1027.17
2017-02-09T14:10:03.532Z,1027.15
2017-02-09T14:15:03.302Z,1027.04
2017-02-09T14:20:02.781Z,1026.89
2017-02-09T14:25:03.257Z,1026.92
2017-02-09T14:30:02.796Z,1026.87
2017-02-09T14:35:03.358Z,1026.84
2017-02-09T14:40:02.732Z,1026.8
2017-02-09T14:45:03.243Z,1026.77
2017-02-09T14:50:02.684Z,1026.76
2017-02-09T14:55:02.594Z,1026.71
2017-02-09T15:00:03.147Z,1026.64
2017-02-09T15:05:02.648Z,1026.65
2017-02-09T15:10:03.326Z,1026.64
2017-02-09T15:15:02.624Z,1026.56
2017-02-09T15:20:03.144Z,1026.56
2017-02-09T15:25:02.642Z,1026.54
2017-02-09T15:30:03.316Z,1026.43
2017-02-09T15:35:03.078Z,1026.44
2017-02-09T15:40:03.494Z,1026.49
2017-02-09T15:45:02.795Z,1026.43
2017-02-09T15:50:03.169Z,1026.48
2017-02-09T15:55:02.709Z,1026.53
2017-02-09T16:00:03.173Z,1026.48
2017-02-09T16:05:02.694Z,1026.51
2017-02-09T16:10:03.456Z,1026.47
2017-02-09T16:15:02.915Z,1026.52
2017-02-09T16:20:03.552Z,1026.58
2017-02-09T16:25:02.998Z,1026.6
2017-02-09T16:30:03.534Z,1026.57
2017-02-09T16:35:02.974Z,1026.56
2017-02-09T16:40:03.540Z,1026.63
2017-02-09T16:45:02.997Z,1026.65
2017-02-09T16:50:03.436Z,1026.61
2017-02-09T16:55:03.133Z,1026.68
2017-02-09T17:00:02.866Z,1026.68
2017-02-09T17:05:03.329Z,1026.68
2017-02-09T17:10:02.829Z,1026.67
2017-02-09T17:15:03.379Z,1026.66
2017-02-09T17:20:02.916Z,1026.64
2017-02-09T17:25:03.564Z,1026.6
2017-02-09T17:30:03.154Z,1026.57
2017-02-09T17:35:03.141Z,1026.67
2017-02-09T17:40:03.442Z,1026.63
2017-02-09T17:45:02.771Z,1026.59
2017-02-09T17:50:03.207Z,1026.64
2017-02-09T17:55:03.536Z,1026.63
2017-02-09T18:00:03.013Z,1026.62
2017-02-09T18:05:03.516Z,1026.54
2017-02-09T18:10:03.032Z,1026.53
2017-02-09T18:15:03.310Z,1026.46
2017-02-09T18:20:02.625Z,1026.46
2017-02-09T18:25:03.104Z,1026.32
2017-02-09T18:30:03.516Z,1026.3
2017-02-09T18:35:02.937Z,1026.21
2017-02-09T18:40:03.569Z,1026.18
2017-02-09T18:45:03.274Z,1026.16
2017-02-09T18:50:02.950Z,1026.19
2017-02-09T18:55:03.555Z,1026.12
2017-02-09T19:00:03.176Z,1026.09
2017-02-09T19:05:02.846Z,1026.13
2017-02-09T19:10:03.463Z,1026.14
2017-02-09T19:15:03.131Z,1026.09
2017-02-09T19:20:02.700Z,1026.14
2017-02-09T19:25:03.027Z,1026.13
2017-02-09T19:30:03.553Z,1026.03
2017-02-09T19:35:02.721Z,1026.01
2017-02-09T19:40:03.180Z,1026.1
2017-02-09T19:45:02.641Z,1026.07
2017-02-09T19:50:03.063Z,1026.03
2017-02-09T19:55:03.712Z,1026.06
2017-02-09T20:00:03.273Z,1025.92
2017-02-09T20:05:02.885Z,1025.92
2017-02-09T20:10:03.322Z,1025.88
2017-02-09T20:15:02.703Z,1025.87
2017-02-09T20:20:02.993Z,1025.76
2017-02-09T20:25:03.506Z,1025.73
2017-02-09T20:30:02.999Z,1025.72
2017-02-09T20:35:03.539Z,1025.71
2017-02-09T20:40:03.404Z,1025.61
2017-02-09T20:45:02.860Z,1025.5
2017-02-09T20:50:03.639Z,1025.59
2017-02-09T20:55:03.167Z,1025.59
2017-02-09T21:00:02.663Z,1025.63
2017-02-09T21:05:03.347Z,1025.58
2017-02-09T21:10:02.908Z,1025.59
2017-02-09T21:15:03.588Z,1025.49
2017-02-09T21:20:02.956Z,1025.45
2017-02-09T21:25:03.419Z,1025.44
2017-02-09T21:30:03.126Z,1025.54
2017-02-09T21:35:02.734Z,1025.45
2017-02-09T21:40:03.256Z,1025.4
2017-02-09T21:45:02.916Z,1025.39
2017-02-09T21:50:02.579Z,1025.34
2017-02-09T21:55:03.019Z,1025.35
2017-02-09T22:00:03.461Z,1025.27
2017-02-09T22:05:02.821Z,1025.28
2017-02-09T22:10:03.277Z,1025.28
2017-02-09T22:15:02.713Z,1025.3
2017-02-09T22:20:03.114Z,1025.26
2017-02-09T22:25:02.684Z,1025.21
2017-02-09T22:30:03.466Z,1025.29
2017-02-09T22:35:02.816Z,1025.19
2017-02-09T22:40:03.199Z,1025.24
2017-02-09T22:45:02.681Z,1025.26
2017-02-09T22:50:03.077Z,1025.15
2017-02-09T22:55:02.678Z,1025.2
2017-02-09T23:00:02.996Z,1025.23
2017-02-09T23:05:03.582Z,1025.18
2017-02-09T23:10:03.094Z,1025.19
2017-02-09T23:15:02.616Z,1025.21
2017-02-09T23:20:03.442Z,1025.1
2017-02-09T23:25:02.993Z,1025.1
2017-02-09T23:30:03.476Z,1025.16
2017-02-09T23:35:03.123Z,1025.13
2017-02-09T23:40:02.674Z,1025.16
2017-02-09T23:45:03.149Z,1025.1
2017-02-09T23:50:02.698Z,1025.1
2017-02-09T23:55:03.084Z,1025.09
